Terminal Aerodrome Forecast
Issued by NWS Brownsville, TX

Home | Current Version | Previous Version | Text Only | Print | Product List | Glossary On
Versions: 1 2 3 4 5 6 7 8 9 10 11 12 13 14 15 16 17 18 19 20 21 22 23 24 25
000
FTUS44 KBRO 040521
TAFHRL
TAF
KHRL 040521Z 0406/0506 13007KT P6SM FEW030
      TEMPO 0411/0414 4SM BR BKN025
     FM041400 15014G20KT P6SM SCT025 SCT035
     FM041600 16017G23KT P6SM SCT030 BKN040
     FM042000 14018G25KT P6SM SCT030 SCT050
     FM050200 15010KT P6SM SKC=

USA.gov is the U.S. government's official web portal to all federal, state and local government web resources and services.